sensor_id;sensor_type;location;lat;lon;timestamp;P1;durP1;ratioP1;P2;durP2;ratioP2
10013;SDS011;45684;48.358;10.746;2023-06-22T00:00:26;65.33;;;62.40;;
10013;SDS011;45684;48.358;10.746;2023-06-22T00:02:55;96.83;;;92.23;;
10013;SDS011;45684;48.358;10.746;2023-06-22T00:05:23;128.50;;;123.20;;
10013;SDS011;45684;48.358;10.746;2023-06-22T00:07:51;216.27;;;207.00;;
10013;SDS011;45684;48.358;10.746;2023-06-22T00:10:19;242.03;;;231.83;;
10013;SDS011;45684;48.358;10.746;2023-06-22T00:12:47;276.27;;;264.90;;
10013;SDS011;45684;48.358;10.746;2023-06-22T00:15:15;306.47;;;293.50;;
10013;SDS011;45684;48.358;10.746;2023-06-22T00:17:43;316.93;;;303.37;;
10013;SDS011;45684;48.358;10.746;2023-06-22T00:20:12;323.63;;;309.97;;
10013;SDS011;45684;48.358;10.746;2023-06-22T00:22:40;318.00;;;304.93;;
10013;SDS011;45684;48.358;10.746;2023-06-22T00:25:09;333.80;;;320.13;;
10013;SDS011;45684;48.358;10.746;2023-06-22T00:27:37;346.33;;;332.37;;
10013;SDS011;45684;48.358;10.746;2023-06-22T00:30:06;297.40;;;285.73;;
10013;SDS011;45684;48.358;10.746;2023-06-22T00:32:34;287.80;;;276.47;;
10013;SDS011;45684;48.358;10.746;2023-06-22T00:35:02;250.23;;;240.47;;
10013;SDS011;45684;48.358;10.746;2023-06-22T00:37:32;233.87;;;224.87;;
10013;SDS011;45684;48.358;10.746;2023-06-22T00:40:00;209.50;;;201.47;;
10013;SDS011;45684;48.358;10.746;2023-06-22T00:42:27;195.67;;;188.00;;
10013;SDS011;45684;48.358;10.746;2023-06-22T00:44:55;196.80;;;188.97;;
10013;SDS011;45684;48.358;10.746;2023-06-22T00:47:23;172.27;;;165.47;;
10013;SDS011;45684;48.358;10.746;2023-06-22T00:49:51;192.37;;;184.80;;
10013;SDS011;45684;48.358;10.746;2023-06-22T00:52:19;195.40;;;187.37;;
10013;SDS011;45684;48.358;10.746;2023-06-22T00:54:56;202.93;;;194.70;;
10013;SDS011;45684;48.358;10.746;2023-06-22T00:57:25;236.47;;;227.00;;
10013;SDS011;45684;48.358;10.746;2023-06-22T00:59:54;233.93;;;223.97;;
10013;SDS011;45684;48.358;10.746;2023-06-22T01:02:22;242.70;;;232.63;;
10013;SDS011;45684;48.358;10.746;2023-06-22T01:04:50;264.87;;;253.83;;
10013;SDS011;45684;48.358;10.746;2023-06-22T01:07:20;275.17;;;263.83;;
10013;SDS011;45684;48.358;10.746;2023-06-22T01:09:56;291.23;;;279.47;;
10013;SDS011;45684;48.358;10.746;2023-06-22T01:12:30;288.93;;;277.00;;
10013;SDS011;45684;48.358;10.746;2023-06-22T01:15:03;298.53;;;286.30;;
10013;SDS011;45684;48.358;10.746;2023-06-22T01:17:36;290.53;;;278.70;;
10013;SDS011;45684;48.358;10.746;2023-06-22T01:20:09;286.40;;;275.20;;
10013;SDS011;45684;48.358;10.746;2023-06-22T01:22:43;297.27;;;285.33;;
10013;SDS011;45684;48.358;10.746;2023-06-22T01:25:21;288.57;;;277.00;;
10013;SDS011;45684;48.358;10.746;2023-06-22T01:27:56;296.70;;;284.77;;
10013;SDS011;45684;48.358;10.746;2023-06-22T01:30:32;259.90;;;249.80;;
10013;SDS011;45684;48.358;10.746;2023-06-22T01:33:03;269.60;;;259.13;;
10013;SDS011;45684;48.358;10.746;2023-06-22T01:35:34;232.97;;;223.97;;
10013;SDS011;45684;48.358;10.746;2023-06-22T01:38:02;226.10;;;217.40;;
10013;SDS011;45684;48.358;10.746;2023-06-22T01:40:31;206.33;;;198.47;;
10013;SDS011;45684;48.358;10.746;2023-06-22T01:43:01;205.73;;;197.63;;
10013;SDS011;45684;48.358;10.746;2023-06-22T01:45:30;200.10;;;192.50;;
10013;SDS011;45684;48.358;10.746;2023-06-22T01:48:02;176.50;;;169.23;;
10013;SDS011;45684;48.358;10.746;2023-06-22T01:50:30;181.40;;;174.30;;
10013;SDS011;45684;48.358;10.746;2023-06-22T01:52:58;144.60;;;138.90;;
10013;SDS011;45684;48.358;10.746;2023-06-22T01:55:26;145.60;;;139.87;;
10013;SDS011;45684;48.358;10.746;2023-06-22T01:57:53;144.63;;;138.77;;
10013;SDS011;45684;48.358;10.746;2023-06-22T02:00:21;141.27;;;135.47;;
10013;SDS011;45684;48.358;10.746;2023-06-22T02:02:54;150.00;;;143.67;;
10013;SDS011;45684;48.358;10.746;2023-06-22T02:05:29;147.00;;;141.10;;
10013;SDS011;45684;48.358;10.746;2023-06-22T02:08:02;142.63;;;136.67;;
10013;SDS011;45684;48.358;10.746;2023-06-22T02:10:37;140.50;;;134.67;;
10013;SDS011;45684;48.358;10.746;2023-06-22T02:13:08;140.33;;;134.23;;
10013;SDS011;45684;48.358;10.746;2023-06-22T02:15:37;142.17;;;136.30;;
10013;SDS011;45684;48.358;10.746;2023-06-22T02:18:05;145.43;;;139.37;;
10013;SDS011;45684;48.358;10.746;2023-06-22T02:20:37;136.47;;;130.83;;
10013;SDS011;45684;48.358;10.746;2023-06-22T02:23:05;135.77;;;130.17;;
10013;SDS011;45684;48.358;10.746;2023-06-22T02:25:34;141.90;;;136.03;;
10013;SDS011;45684;48.358;10.746;2023-06-22T02:28:03;150.70;;;144.63;;
10013;SDS011;45684;48.358;10.746;2023-06-22T02:30:31;137.57;;;131.83;;
10013;SDS011;45684;48.358;10.746;2023-06-22T02:32:59;134.40;;;128.43;;
10013;SDS011;45684;48.358;10.746;2023-06-22T02:35:28;146.67;;;140.67;;
10013;SDS011;45684;48.358;10.746;2023-06-22T02:37:59;159.03;;;152.30;;
10013;SDS011;45684;48.358;10.746;2023-06-22T02:40:27;160.87;;;154.20;;
10013;SDS011;45684;48.358;10.746;2023-06-22T02:42:57;198.70;;;190.47;;
10013;SDS011;45684;48.358;10.746;2023-06-22T02:45:29;184.33;;;176.17;;
10013;SDS011;45684;48.358;10.746;2023-06-22T02:47:57;164.30;;;157.37;;
10013;SDS011;45684;48.358;10.746;2023-06-22T02:50:25;166.37;;;159.50;;
10013;SDS011;45684;48.358;10.746;2023-06-22T02:52:54;176.20;;;168.50;;
10013;SDS011;45684;48.358;10.746;2023-06-22T02:55:23;217.17;;;207.80;;
10013;SDS011;45684;48.358;10.746;2023-06-22T02:57:55;258.60;;;247.27;;
10013;SDS011;45684;48.358;10.746;2023-06-22T03:00:28;256.80;;;245.10;;
10013;SDS011;45684;48.358;10.746;2023-06-22T03:02:57;312.90;;;298.07;;
10013;SDS011;45684;48.358;10.746;2023-06-22T03:05:25;333.63;;;318.17;;
10013;SDS011;45684;48.358;10.746;2023-06-22T03:07:55;372.90;;;354.23;;
10013;SDS011;45684;48.358;10.746;2023-06-22T03:10:24;354.43;;;337.17;;
10013;SDS011;45684;48.358;10.746;2023-06-22T03:12:52;425.03;;;403.67;;
10013;SDS011;45684;48.358;10.746;2023-06-22T03:15:22;429.83;;;408.40;;
10013;SDS011;45684;48.358;10.746;2023-06-22T03:17:50;439.90;;;417.67;;
10013;SDS011;45684;48.358;10.746;2023-06-22T03:20:18;459.07;;;435.07;;
10013;SDS011;45684;48.358;10.746;2023-06-22T03:22:46;509.43;;;481.37;;
10013;SDS011;45684;48.358;10.746;2023-06-22T03:25:15;392.27;;;373.00;;
10013;SDS011;45684;48.358;10.746;2023-06-22T03:27:46;374.80;;;357.13;;
10013;SDS011;45684;48.358;10.746;2023-06-22T03:30:14;428.77;;;407.70;;
10013;SDS011;45684;48.358;10.746;2023-06-22T03:32:44;449.33;;;426.90;;
10013;SDS011;45684;48.358;10.746;2023-06-22T03:35:13;427.33;;;407.23;;
10013;SDS011;45684;48.358;10.746;2023-06-22T03:37:41;462.23;;;438.90;;
10013;SDS011;45684;48.358;10.746;2023-06-22T03:40:09;424.37;;;403.77;;
10013;SDS011;45684;48.358;10.746;2023-06-22T03:42:37;435.20;;;414.17;;
10013;SDS011;45684;48.358;10.746;2023-06-22T03:45:07;486.03;;;461.27;;
10013;SDS011;45684;48.358;10.746;2023-06-22T03:47:35;435.40;;;413.80;;
10013;SDS011;45684;48.358;10.746;2023-06-22T03:50:03;469.40;;;445.87;;
10013;SDS011;45684;48.358;10.746;2023-06-22T03:52:32;436.60;;;414.97;;
10013;SDS011;45684;48.358;10.746;2023-06-22T03:55:00;432.93;;;411.47;;
10013;SDS011;45684;48.358;10.746;2023-06-22T03:57:27;432.50;;;411.10;;
10013;SDS011;45684;48.358;10.746;2023-06-22T03:59:56;427.23;;;405.77;;
10013;SDS011;45684;48.358;10.746;2023-06-22T04:02:25;391.43;;;372.17;;
10013;SDS011;45684;48.358;10.746;2023-06-22T04:04:53;440.00;;;417.60;;
10013;SDS011;45684;48.358;10.746;2023-06-22T04:07:21;442.17;;;419.90;;
10013;SDS011;45684;48.358;10.746;2023-06-22T04:09:49;414.87;;;393.47;;
10013;SDS011;45684;48.358;10.746;2023-06-22T04:12:17;318.00;;;302.83;;
10013;SDS011;45684;48.358;10.746;2023-06-22T04:14:45;337.43;;;321.50;;
10013;SDS011;45684;48.358;10.746;2023-06-22T04:17:13;381.67;;;363.70;;
10013;SDS011;45684;48.358;10.746;2023-06-22T04:19:42;314.53;;;300.17;;
10013;SDS011;45684;48.358;10.746;2023-06-22T04:22:10;306.27;;;292.57;;
10013;SDS011;45684;48.358;10.746;2023-06-22T04:24:38;372.50;;;355.33;;
10013;SDS011;45684;48.358;10.746;2023-06-22T04:27:06;300.70;;;287.33;;
10013;SDS011;45684;48.358;10.746;2023-06-22T04:29:34;302.57;;;289.03;;
10013;SDS011;45684;48.358;10.746;2023-06-22T04:32:02;281.90;;;269.30;;
10013;SDS011;45684;48.358;10.746;2023-06-22T04:34:31;314.60;;;299.97;;
10013;SDS011;45684;48.358;10.746;2023-06-22T04:37:00;267.23;;;255.10;;
10013;SDS011;45684;48.358;10.746;2023-06-22T04:39:28;344.33;;;328.33;;
10013;SDS011;45684;48.358;10.746;2023-06-22T04:41:56;312.43;;;298.10;;
10013;SDS011;45684;48.358;10.746;2023-06-22T04:44:26;326.43;;;310.57;;
10013;SDS011;45684;48.358;10.746;2023-06-22T04:46:57;304.33;;;290.37;;
10013;SDS011;45684;48.358;10.746;2023-06-22T04:49:29;292.67;;;279.40;;
10013;SDS011;45684;48.358;10.746;2023-06-22T04:52:02;253.03;;;241.97;;
10013;SDS011;45684;48.358;10.746;2023-06-22T04:54:31;282.73;;;270.10;;
10013;SDS011;45684;48.358;10.746;2023-06-22T04:57:00;248.80;;;238.13;;
10013;SDS011;45684;48.358;10.746;2023-06-22T04:59:29;239.43;;;229.40;;
10013;SDS011;45684;48.358;10.746;2023-06-22T05:01:57;224.23;;;214.90;;
10013;SDS011;45684;48.358;10.746;2023-06-22T05:04:27;214.07;;;205.43;;
10013;SDS011;45684;48.358;10.746;2023-06-22T05:06:58;168.07;;;161.17;;
10013;SDS011;45684;48.358;10.746;2023-06-22T05:09:27;189.80;;;182.03;;
10013;SDS011;45684;48.358;10.746;2023-06-22T05:11:56;168.20;;;161.23;;
10013;SDS011;45684;48.358;10.746;2023-06-22T05:14:26;173.20;;;166.00;;
10013;SDS011;45684;48.358;10.746;2023-06-22T05:16:53;172.50;;;165.33;;
10013;SDS011;45684;48.358;10.746;2023-06-22T05:19:25;182.23;;;174.57;;
10013;SDS011;45684;48.358;10.746;2023-06-22T05:21:57;209.87;;;201.37;;
10013;SDS011;45684;48.358;10.746;2023-06-22T05:24:25;206.23;;;197.83;;
10013;SDS011;45684;48.358;10.746;2023-06-22T05:26:54;188.00;;;180.30;;
10013;SDS011;45684;48.358;10.746;2023-06-22T05:29:22;249.53;;;239.03;;
10013;SDS011;45684;48.358;10.746;2023-06-22T05:31:50;193.77;;;185.77;;
10013;SDS011;45684;48.358;10.746;2023-06-22T05:34:17;242.70;;;232.83;;
10013;SDS011;45684;48.358;10.746;2023-06-22T05:36:45;215.30;;;206.43;;
10013;SDS011;45684;48.358;10.746;2023-06-22T05:39:13;200.57;;;192.43;;
10013;SDS011;45684;48.358;10.746;2023-06-22T05:41:42;230.87;;;221.57;;
10013;SDS011;45684;48.358;10.746;2023-06-22T05:44:11;241.77;;;231.83;;
10013;SDS011;45684;48.358;10.746;2023-06-22T05:46:40;267.13;;;255.97;;
10013;SDS011;45684;48.358;10.746;2023-06-22T05:49:11;267.07;;;255.50;;
10013;SDS011;45684;48.358;10.746;2023-06-22T05:51:39;259.77;;;248.87;;
10013;SDS011;45684;48.358;10.746;2023-06-22T05:54:06;245.53;;;235.43;;
10013;SDS011;45684;48.358;10.746;2023-06-22T05:56:35;238.80;;;228.90;;
10013;SDS011;45684;48.358;10.746;2023-06-22T05:59:03;288.17;;;275.80;;
10013;SDS011;45684;48.358;10.746;2023-06-22T06:01:32;277.27;;;265.30;;
10013;SDS011;45684;48.358;10.746;2023-06-22T06:04:02;276.13;;;264.40;;
10013;SDS011;45684;48.358;10.746;2023-06-22T06:06:31;257.47;;;246.60;;
10013;SDS011;45684;48.358;10.746;2023-06-22T06:09:01;282.77;;;270.67;;
10013;SDS011;45684;48.358;10.746;2023-06-22T06:14:18;244.55;;;234.52;;
10013;SDS011;45684;48.358;10.746;2023-06-22T06:16:48;212.70;;;204.40;;
10013;SDS011;45684;48.358;10.746;2023-06-22T06:19:16;272.52;;;261.27;;
10013;SDS011;45684;48.358;10.746;2023-06-22T06:21:44;225.33;;;216.53;;
10013;SDS011;45684;48.358;10.746;2023-06-22T06:24:12;289.93;;;277.87;;
10013;SDS011;45684;48.358;10.746;2023-06-22T06:26:40;274.02;;;262.88;;
10013;SDS011;45684;48.358;10.746;2023-06-22T06:29:09;273.77;;;262.33;;
10013;SDS011;45684;48.358;10.746;2023-06-22T06:31:37;198.23;;;190.35;;
10013;SDS011;45684;48.358;10.746;2023-06-22T06:34:06;175.52;;;168.57;;
10013;SDS011;45684;48.358;10.746;2023-06-22T06:36:34;136.10;;;130.68;;
10013;SDS011;45684;48.358;10.746;2023-06-22T06:39:02;104.57;;;100.18;;
10013;SDS011;45684;48.358;10.746;2023-06-22T06:41:31;109.80;;;105.13;;
10013;SDS011;45684;48.358;10.746;2023-06-22T06:43:59;120.97;;;116.13;;
10013;SDS011;45684;48.358;10.746;2023-06-22T06:46:27;102.20;;;97.60;;
10013;SDS011;45684;48.358;10.746;2023-06-22T06:48:55;80.20;;;76.47;;
10013;SDS011;45684;48.358;10.746;2023-06-22T06:51:24;88.53;;;84.80;;
10013;SDS011;45684;48.358;10.746;2023-06-22T06:53:52;85.68;;;81.95;;
10013;SDS011;45684;48.358;10.746;2023-06-22T06:56:20;87.40;;;83.57;;
10013;SDS011;45684;48.358;10.746;2023-06-22T06:58:49;70.43;;;67.43;;
10013;SDS011;45684;48.358;10.746;2023-06-22T07:01:18;77.00;;;73.60;;
10013;SDS011;45684;48.358;10.746;2023-06-22T07:03:48;83.50;;;79.78;;
10013;SDS011;45684;48.358;10.746;2023-06-22T07:06:16;85.72;;;81.72;;
10013;SDS011;45684;48.358;10.746;2023-06-22T07:08:45;73.55;;;70.32;;
10013;SDS011;45684;48.358;10.746;2023-06-22T07:11:13;95.57;;;91.75;;
10013;SDS011;45684;48.358;10.746;2023-06-22T07:13:41;83.13;;;79.55;;
10013;SDS011;45684;48.358;10.746;2023-06-22T07:16:12;75.35;;;71.93;;
10013;SDS011;45684;48.358;10.746;2023-06-22T07:18:40;81.13;;;77.47;;
10013;SDS011;45684;48.358;10.746;2023-06-22T07:21:08;84.03;;;80.18;;
10013;SDS011;45684;48.358;10.746;2023-06-22T07:23:36;90.32;;;86.60;;
10013;SDS011;45684;48.358;10.746;2023-06-22T07:26:05;53.08;;;50.38;;
10013;SDS011;45684;48.358;10.746;2023-06-22T07:28:34;44.22;;;42.15;;
10013;SDS011;45684;48.358;10.746;2023-06-22T07:31:04;26.65;;;25.08;;
10013;SDS011;45684;48.358;10.746;2023-06-22T07:33:32;23.98;;;22.48;;
10013;SDS011;45684;48.358;10.746;2023-06-22T07:36:00;22.67;;;21.27;;
10013;SDS011;45684;48.358;10.746;2023-06-22T07:38:29;10.00;;;8.23;;
10013;SDS011;45684;48.358;10.746;2023-06-22T07:40:56;9.00;;;6.47;;
10013;SDS011;45684;48.358;10.746;2023-06-22T07:43:26;10.20;;;6.43;;
10013;SDS011;45684;48.358;10.746;2023-06-22T07:45:55;8.35;;;6.13;;
10013;SDS011;45684;48.358;10.746;2023-06-22T07:48:23;9.52;;;5.72;;
10013;SDS011;45684;48.358;10.746;2023-06-22T07:50:52;10.57;;;6.13;;
10013;SDS011;45684;48.358;10.746;2023-06-22T07:53:21;8.10;;;5.40;;
10013;SDS011;45684;48.358;10.746;2023-06-22T07:55:49;8.23;;;5.55;;
10013;SDS011;45684;48.358;10.746;2023-06-22T07:58:17;9.13;;;5.68;;
10013;SDS011;45684;48.358;10.746;2023-06-22T08:00:48;10.43;;;5.50;;
10013;SDS011;45684;48.358;10.746;2023-06-22T08:03:16;7.85;;;5.57;;
10013;SDS011;45684;48.358;10.746;2023-06-22T08:05:44;11.60;;;6.05;;
10013;SDS011;45684;48.358;10.746;2023-06-22T08:08:12;10.55;;;5.55;;
10013;SDS011;45684;48.358;10.746;2023-06-22T08:10:40;6.82;;;5.30;;
10013;SDS011;45684;48.358;10.746;2023-06-22T08:13:09;8.13;;;7.32;;
10013;SDS011;45684;48.358;10.746;2023-06-22T08:15:37;10.13;;;7.68;;
10013;SDS011;45684;48.358;10.746;2023-06-22T08:18:07;10.75;;;7.97;;
10013;SDS011;45684;48.358;10.746;2023-06-22T08:20:34;8.88;;;8.07;;
10013;SDS011;45684;48.358;10.746;2023-06-22T08:23:02;10.73;;;7.63;;
10013;SDS011;45684;48.358;10.746;2023-06-22T08:25:32;9.25;;;7.63;;
10013;SDS011;45684;48.358;10.746;2023-06-22T08:28:00;9.82;;;7.70;;
10013;SDS011;45684;48.358;10.746;2023-06-22T08:30:28;10.38;;;7.80;;
10013;SDS011;45684;48.358;10.746;2023-06-22T08:32:56;12.10;;;7.90;;
10013;SDS011;45684;48.358;10.746;2023-06-22T08:35:25;8.23;;;7.45;;
10013;SDS011;45684;48.358;10.746;2023-06-22T08:37:54;8.43;;;7.65;;
10013;SDS011;45684;48.358;10.746;2023-06-22T08:40:23;10.20;;;7.85;;
10013;SDS011;45684;48.358;10.746;2023-06-22T08:42:51;8.75;;;7.93;;
10013;SDS011;45684;48.358;10.746;2023-06-22T08:45:19;8.95;;;7.43;;
10013;SDS011;45684;48.358;10.746;2023-06-22T08:47:46;10.73;;;7.68;;
10013;SDS011;45684;48.358;10.746;2023-06-22T08:50:14;10.48;;;7.40;;
10013;SDS011;45684;48.358;10.746;2023-06-22T08:52:44;10.18;;;6.95;;
10013;SDS011;45684;48.358;10.746;2023-06-22T08:55:12;10.25;;;7.43;;
10013;SDS011;45684;48.358;10.746;2023-06-22T08:57:40;9.73;;;7.72;;
10013;SDS011;45684;48.358;10.746;2023-06-22T09:00:09;8.90;;;7.97;;
10013;SDS011;45684;48.358;10.746;2023-06-22T09:02:43;9.90;;;8.38;;
10013;SDS011;45684;48.358;10.746;2023-06-22T09:05:12;10.00;;;8.77;;
10013;SDS011;45684;48.358;10.746;2023-06-22T09:07:40;8.65;;;7.47;;
10013;SDS011;45684;48.358;10.746;2023-06-22T09:10:10;8.18;;;7.40;;
10013;SDS011;45684;48.358;10.746;2023-06-22T09:12:38;8.35;;;7.53;;
10013;SDS011;45684;48.358;10.746;2023-06-22T09:15:07;12.40;;;8.95;;
10013;SDS011;45684;48.358;10.746;2023-06-22T09:17:42;9.75;;;8.13;;
10013;SDS011;45684;48.358;10.746;2023-06-22T09:20:10;8.50;;;7.70;;
10013;SDS011;45684;48.358;10.746;2023-06-22T09:22:40;8.82;;;7.95;;
10013;SDS011;45684;48.358;10.746;2023-06-22T09:25:09;8.63;;;7.50;;
10013;SDS011;45684;48.358;10.746;2023-06-22T09:27:37;8.15;;;7.13;;
10013;SDS011;45684;48.358;10.746;2023-06-22T09:30:06;9.23;;;7.75;;
10013;SDS011;45684;48.358;10.746;2023-06-22T09:32:35;10.68;;;7.43;;
10013;SDS011;45684;48.358;10.746;2023-06-22T09:35:04;12.48;;;7.45;;
10013;SDS011;45684;48.358;10.746;2023-06-22T09:37:33;9.50;;;7.07;;
10013;SDS011;45684;48.358;10.746;2023-06-22T09:40:01;13.07;;;7.22;;
10013;SDS011;45684;48.358;10.746;2023-06-22T09:42:32;8.77;;;7.30;;
10013;SDS011;45684;48.358;10.746;2023-06-22T09:45:00;9.57;;;7.40;;
10013;SDS011;45684;48.358;10.746;2023-06-22T09:47:28;10.73;;;7.22;;
10013;SDS011;45684;48.358;10.746;2023-06-22T09:49:56;7.35;;;6.57;;
10013;SDS011;45684;48.358;10.746;2023-06-22T09:52:26;8.63;;;6.65;;
10013;SDS011;45684;48.358;10.746;2023-06-22T09:55:12;10.18;;;7.30;;
10013;SDS011;45684;48.358;10.746;2023-06-22T09:57:43;13.10;;;7.00;;
10013;SDS011;45684;48.358;10.746;2023-06-22T10:00:11;8.73;;;7.25;;
10013;SDS011;45684;48.358;10.746;2023-06-22T10:02:41;8.95;;;7.10;;
10013;SDS011;45684;48.358;10.746;2023-06-22T10:05:10;10.90;;;7.45;;
10013;SDS011;45684;48.358;10.746;2023-06-22T10:07:38;7.70;;;6.68;;
10013;SDS011;45684;48.358;10.746;2023-06-22T10:10:09;7.60;;;6.90;;
10013;SDS011;45684;48.358;10.746;2023-06-22T10:12:40;7.40;;;6.70;;
10013;SDS011;45684;48.358;10.746;2023-06-22T10:15:14;9.90;;;6.72;;
10013;SDS011;45684;48.358;10.746;2023-06-22T10:17:43;10.95;;;7.47;;
10013;SDS011;45684;48.358;10.746;2023-06-22T10:20:11;8.73;;;7.82;;
10013;SDS011;45684;48.358;10.746;2023-06-22T10:22:39;10.57;;;7.65;;
10013;SDS011;45684;48.358;10.746;2023-06-22T10:25:08;7.90;;;7.10;;
10013;SDS011;45684;48.358;10.746;2023-06-22T10:27:36;10.68;;;7.38;;
10013;SDS011;45684;48.358;10.746;2023-06-22T10:30:08;8.30;;;7.55;;
10013;SDS011;45684;48.358;10.746;2023-06-22T10:32:39;9.50;;;7.10;;
10013;SDS011;45684;48.358;10.746;2023-06-22T10:35:08;8.07;;;6.97;;
10013;SDS011;45684;48.358;10.746;2023-06-22T10:37:37;8.38;;;6.97;;
10013;SDS011;45684;48.358;10.746;2023-06-22T10:40:05;9.45;;;7.10;;
10013;SDS011;45684;48.358;10.746;2023-06-22T10:42:34;11.07;;;7.28;;
10013;SDS011;45684;48.358;10.746;2023-06-22T10:45:02;13.32;;;8.18;;
10013;SDS011;45684;48.358;10.746;2023-06-22T10:47:32;10.68;;;7.72;;
10013;SDS011;45684;48.358;10.746;2023-06-22T10:50:00;8.82;;;7.20;;
10013;SDS011;45684;48.358;10.746;2023-06-22T10:52:28;12.00;;;7.57;;
10013;SDS011;45684;48.358;10.746;2023-06-22T10:54:57;8.57;;;6.97;;
10013;SDS011;45684;48.358;10.746;2023-06-22T10:57:25;12.05;;;7.78;;
10013;SDS011;45684;48.358;10.746;2023-06-22T10:59:53;7.82;;;7.03;;
10013;SDS011;45684;48.358;10.746;2023-06-22T11:02:21;14.50;;;7.63;;
10013;SDS011;45684;48.358;10.746;2023-06-22T11:04:50;8.40;;;6.72;;
10013;SDS011;45684;48.358;10.746;2023-06-22T11:07:18;8.20;;;7.40;;
10013;SDS011;45684;48.358;10.746;2023-06-22T11:09:46;10.05;;;7.30;;
10013;SDS011;45684;48.358;10.746;2023-06-22T11:12:14;10.80;;;7.63;;
10013;SDS011;45684;48.358;10.746;2023-06-22T11:14:42;8.27;;;6.85;;
10013;SDS011;45684;48.358;10.746;2023-06-22T11:17:10;8.77;;;6.55;;
10013;SDS011;45684;48.358;10.746;2023-06-22T11:19:37;15.00;;;7.93;;
10013;SDS011;45684;48.358;10.746;2023-06-22T11:22:07;7.70;;;6.93;;
10013;SDS011;45684;48.358;10.746;2023-06-22T11:24:34;10.75;;;6.93;;
10013;SDS011;45684;48.358;10.746;2023-06-22T11:27:02;14.95;;;6.90;;
10013;SDS011;45684;48.358;10.746;2023-06-22T11:29:31;9.70;;;6.90;;
10013;SDS011;45684;48.358;10.746;2023-06-22T11:32:04;7.32;;;6.30;;
10013;SDS011;45684;48.358;10.746;2023-06-22T11:34:33;10.60;;;6.50;;
10013;SDS011;45684;48.358;10.746;2023-06-22T11:37:01;9.77;;;6.88;;
10013;SDS011;45684;48.358;10.746;2023-06-22T11:39:30;9.95;;;6.68;;
10013;SDS011;45684;48.358;10.746;2023-06-22T11:42:08;12.45;;;7.95;;
10013;SDS011;45684;48.358;10.746;2023-06-22T11:44:36;8.73;;;6.78;;
10013;SDS011;45684;48.358;10.746;2023-06-22T11:47:04;9.75;;;6.80;;
10013;SDS011;45684;48.358;10.746;2023-06-22T11:49:33;9.50;;;6.30;;
10013;SDS011;45684;48.358;10.746;2023-06-22T11:52:01;9.52;;;6.05;;
10013;SDS011;45684;48.358;10.746;2023-06-22T11:54:28;13.73;;;7.03;;
10013;SDS011;45684;48.358;10.746;2023-06-22T11:56:58;10.60;;;6.57;;
10013;SDS011;45684;48.358;10.746;2023-06-22T11:59:25;12.15;;;7.10;;
10013;SDS011;45684;48.358;10.746;2023-06-22T12:01:53;11.18;;;6.72;;
10013;SDS011;45684;48.358;10.746;2023-06-22T12:04:21;12.57;;;7.50;;
10013;SDS011;45684;48.358;10.746;2023-06-22T12:06:49;10.07;;;7.00;;
10013;SDS011;45684;48.358;10.746;2023-06-22T12:09:17;9.68;;;7.05;;
10013;SDS011;45684;48.358;10.746;2023-06-22T12:11:45;7.60;;;6.75;;
10013;SDS011;45684;48.358;10.746;2023-06-22T12:14:14;11.57;;;6.85;;
10013;SDS011;45684;48.358;10.746;2023-06-22T12:16:43;11.73;;;7.40;;
10013;SDS011;45684;48.358;10.746;2023-06-22T12:19:11;10.55;;;6.40;;
10013;SDS011;45684;48.358;10.746;2023-06-22T12:21:39;6.70;;;6.05;;
10013;SDS011;45684;48.358;10.746;2023-06-22T12:24:07;10.75;;;7.38;;
10013;SDS011;45684;48.358;10.746;2023-06-22T12:26:35;10.25;;;7.03;;
10013;SDS011;45684;48.358;10.746;2023-06-22T12:29:03;9.50;;;7.70;;
10013;SDS011;45684;48.358;10.746;2023-06-22T12:31:32;15.43;;;7.85;;
10013;SDS011;45684;48.358;10.746;2023-06-22T12:34:00;7.47;;;6.72;;
10013;SDS011;45684;48.358;10.746;2023-06-22T12:36:27;9.48;;;6.60;;
10013;SDS011;45684;48.358;10.746;2023-06-22T12:38:55;9.52;;;6.68;;
10013;SDS011;45684;48.358;10.746;2023-06-22T12:41:23;9.98;;;6.88;;
10013;SDS011;45684;48.358;10.746;2023-06-22T12:43:51;8.13;;;6.88;;
10013;SDS011;45684;48.358;10.746;2023-06-22T12:46:19;9.73;;;7.05;;
10013;SDS011;45684;48.358;10.746;2023-06-22T12:48:48;9.90;;;6.45;;
10013;SDS011;45684;48.358;10.746;2023-06-22T12:51:20;10.98;;;6.47;;
10013;SDS011;45684;48.358;10.746;2023-06-22T12:53:48;9.35;;;7.15;;
10013;SDS011;45684;48.358;10.746;2023-06-22T12:56:16;10.40;;;6.40;;
10013;SDS011;45684;48.358;10.746;2023-06-22T12:58:44;10.88;;;6.40;;
10013;SDS011;45684;48.358;10.746;2023-06-22T13:01:12;9.80;;;6.28;;
10013;SDS011;45684;48.358;10.746;2023-06-22T13:03:41;13.35;;;6.15;;
10013;SDS011;45684;48.358;10.746;2023-06-22T13:06:11;11.07;;;6.70;;
10013;SDS011;45684;48.358;10.746;2023-06-22T13:08:38;11.18;;;6.28;;
10013;SDS011;45684;48.358;10.746;2023-06-22T13:11:09;9.82;;;6.13;;
10013;SDS011;45684;48.358;10.746;2023-06-22T13:13:38;9.00;;;6.03;;
10013;SDS011;45684;48.358;10.746;2023-06-22T13:16:06;7.43;;;5.95;;
10013;SDS011;45684;48.358;10.746;2023-06-22T13:18:34;10.15;;;6.65;;
10013;SDS011;45684;48.358;10.746;2023-06-22T13:21:02;8.95;;;6.70;;
10013;SDS011;45684;48.358;10.746;2023-06-22T13:23:31;9.25;;;6.50;;
10013;SDS011;45684;48.358;10.746;2023-06-22T13:26:00;9.77;;;6.03;;
10013;SDS011;45684;48.358;10.746;2023-06-22T13:28:29;10.25;;;6.30;;
10013;SDS011;45684;48.358;10.746;2023-06-22T13:30:57;11.15;;;6.85;;
10013;SDS011;45684;48.358;10.746;2023-06-22T13:33:25;9.70;;;6.10;;
10013;SDS011;45684;48.358;10.746;2023-06-22T13:35:53;12.13;;;6.22;;
10013;SDS011;45684;48.358;10.746;2023-06-22T13:38:21;8.88;;;5.68;;
10013;SDS011;45684;48.358;10.746;2023-06-22T13:40:50;11.90;;;6.70;;
10013;SDS011;45684;48.358;10.746;2023-06-22T13:43:18;9.48;;;6.10;;
10013;SDS011;45684;48.358;10.746;2023-06-22T13:45:46;13.60;;;6.43;;
10013;SDS011;45684;48.358;10.746;2023-06-22T13:48:14;13.82;;;7.10;;
10013;SDS011;45684;48.358;10.746;2023-06-22T13:50:42;10.38;;;6.97;;
10013;SDS011;45684;48.358;10.746;2023-06-22T13:53:10;9.32;;;6.60;;
10013;SDS011;45684;48.358;10.746;2023-06-22T13:55:39;14.45;;;7.10;;
10013;SDS011;45684;48.358;10.746;2023-06-22T13:58:08;8.88;;;6.32;;
10013;SDS011;45684;48.358;10.746;2023-06-22T14:00:36;9.68;;;6.90;;
10013;SDS011;45684;48.358;10.746;2023-06-22T14:03:04;12.90;;;6.43;;
10013;SDS011;45684;48.358;10.746;2023-06-22T14:05:32;12.05;;;6.72;;
10013;SDS011;45684;48.358;10.746;2023-06-22T14:08:00;15.40;;;6.55;;
10013;SDS011;45684;48.358;10.746;2023-06-22T14:10:30;11.70;;;6.95;;
10013;SDS011;45684;48.358;10.746;2023-06-22T14:12:58;13.13;;;6.90;;
10013;SDS011;45684;48.358;10.746;2023-06-22T14:15:28;11.27;;;7.18;;
10013;SDS011;45684;48.358;10.746;2023-06-22T14:17:56;11.80;;;6.90;;